createdAt,value
2022-11-28T00:03:55.923Z,13.97
2022-11-28T00:07:59.447Z,12.97
2022-11-28T00:12:02.875Z,12.30
2022-11-28T00:16:10.188Z,12.40
2022-11-28T00:20:13.940Z,11.50
2022-11-28T00:24:17.237Z,11.53
2022-11-28T00:28:20.613Z,10.00
2022-11-28T00:32:25.239Z,11.23
2022-11-28T00:36:29.356Z,10.70
2022-11-28T00:40:32.760Z,11.70
2022-11-28T00:44:36.832Z,11.50
2022-11-28T00:48:43.007Z,11.33
2022-11-28T00:52:46.443Z,9.47
2022-11-28T00:56:49.889Z,10.50
2022-11-28T01:00:53.186Z,10.33
2022-11-28T01:04:58.023Z,11.20
2022-11-28T01:09:03.492Z,10.47
2022-11-28T01:13:06.887Z,11.80
2022-11-28T01:17:10.276Z,14.50
2022-11-28T01:21:15.144Z,12.10
2022-11-28T01:25:18.515Z,12.90
2022-11-28T01:29:22.808Z,13.30
2022-11-28T01:33:26.054Z,12.40
2022-11-28T01:37:32.161Z,11.87
2022-11-28T01:41:35.479Z,12.37
2022-11-28T01:45:40.210Z,13.17
2022-11-28T01:49:44.950Z,13.30
2022-11-28T01:53:50.357Z,15.13
2022-11-28T01:57:56.524Z,12.67
2022-11-28T02:02:00.005Z,13.53
2022-11-28T02:06:04.236Z,12.23
2022-11-28T02:10:13.300Z,13.90
2022-11-28T02:14:27.044Z,12.40
2022-11-28T02:18:55.421Z,13.70
2022-11-28T02:23:05.312Z,15.13
2022-11-28T02:27:38.527Z,11.73
2022-11-28T02:36:16.325Z,12.30
2022-11-28T02:40:25.001Z,12.63
2022-11-28T02:44:36.909Z,13.50
2022-11-28T02:48:47.162Z,12.73
2022-11-28T02:52:54.338Z,12.90
2022-11-28T02:56:57.832Z,13.80
2022-11-28T03:01:01.491Z,11.90
2022-11-28T03:05:12.287Z,13.77
2022-11-28T03:09:50.442Z,12.50
2022-11-28T03:13:59.503Z,13.23
2022-11-28T03:18:09.061Z,13.03
2022-11-28T03:22:17.796Z,14.30
2022-11-28T03:26:28.892Z,15.20
2022-11-28T03:30:39.295Z,13.80
2022-11-28T03:34:47.275Z,14.60
2022-11-28T03:38:54.657Z,14.70
2022-11-28T03:43:03.024Z,15.47
2022-11-28T03:47:08.881Z,15.83
2022-11-28T03:51:16.856Z,15.13
2022-11-28T03:55:24.498Z,14.67
2022-11-28T03:59:33.829Z,14.53
2022-11-28T04:03:45.480Z,16.07
2022-11-28T04:07:53.860Z,13.80
2022-11-28T04:12:02.640Z,14.83
2022-11-28T04:16:13.537Z,13.77
2022-11-28T04:20:22.687Z,13.00
2022-11-28T04:24:31.967Z,14.40
2022-11-28T04:28:37.453Z,14.97
2022-11-28T04:32:46.240Z,13.90
2022-11-28T04:36:52.472Z,15.37
2022-11-28T04:41:02.757Z,11.43
2022-11-28T04:45:13.479Z,14.87
2022-11-28T04:49:17.914Z,12.90
2022-11-28T04:53:32.787Z,12.40
2022-11-28T04:57:40.685Z,11.97
2022-11-28T05:01:46.940Z,11.40
2022-11-28T05:05:51.762Z,12.03
2022-11-28T05:09:57.805Z,11.63
2022-11-28T05:14:01.632Z,11.87
2022-11-28T05:18:05.221Z,11.70
2022-11-28T05:22:08.427Z,11.37
2022-11-28T05:26:15.538Z,11.47
2022-11-28T05:30:19.005Z,13.50
2022-11-28T05:34:22.299Z,13.23
2022-11-28T05:38:25.554Z,18.73
2022-11-28T05:42:34.059Z,18.10
2022-11-28T05:46:37.885Z,21.30
2022-11-28T05:50:41.385Z,19.80
2022-11-28T05:54:44.780Z,20.57
2022-11-28T05:58:49.412Z,19.20
2022-11-28T06:02:55.919Z,18.87
2022-11-28T06:07:01.703Z,18.60
2022-11-28T06:11:06.288Z,18.87
2022-11-28T06:15:12.063Z,17.60
2022-11-28T06:19:15.412Z,19.53
2022-11-28T06:23:20.097Z,15.83
2022-11-28T06:27:23.353Z,17.57
2022-11-28T06:31:31.106Z,16.23
2022-11-28T06:35:34.535Z,14.80
2022-11-28T06:39:37.847Z,12.87
2022-11-28T06:43:41.900Z,13.47
2022-11-28T06:47:46.760Z,12.80
2022-11-28T06:51:50.262Z,14.50
2022-11-28T06:55:53.750Z,12.73
2022-11-28T06:59:57.143Z,13.37
2022-11-28T07:04:02.302Z,16.07
2022-11-28T07:08:06.045Z,15.33
2022-11-28T07:12:09.535Z,16.00
2022-11-28T07:16:16.827Z,14.43
2022-11-28T07:20:22.052Z,14.20
2022-11-28T07:24:25.266Z,17.70
2022-11-28T07:28:29.344Z,16.37
2022-11-28T07:32:32.594Z,17.20
2022-11-28T07:36:37.720Z,13.20
2022-11-28T07:40:40.907Z,12.83
2022-11-28T07:44:44.160Z,12.70
2022-11-28T07:48:48.468Z,14.40
2022-11-28T07:52:53.330Z,15.07
2022-11-28T07:57:11.748Z,14.70
2022-11-28T08:01:18.630Z,15.83
2022-11-28T08:05:21.959Z,14.77
2022-11-28T08:09:26.565Z,15.40
2022-11-28T08:13:30.996Z,19.13
2022-11-28T08:17:35.567Z,20.07
2022-11-28T08:21:39.685Z,18.30
2022-11-28T08:25:44.348Z,17.10
2022-11-28T08:29:51.863Z,16.73
2022-11-28T08:33:58.648Z,17.73
2022-11-28T08:38:02.339Z,16.53
2022-11-28T08:42:07.019Z,15.77
2022-11-28T08:46:13.345Z,15.83
2022-11-28T08:50:16.834Z,16.80
2022-11-28T08:54:20.992Z,14.80
2022-11-28T08:58:25.811Z,17.73
2022-11-28T09:02:29.064Z,14.27
2022-11-28T09:06:32.608Z,18.20
2022-11-28T09:10:37.579Z,15.77
2022-11-28T09:14:42.407Z,16.90
2022-11-28T09:18:45.689Z,15.80
2022-11-28T09:22:49.332Z,15.70
2022-11-28T09:26:52.608Z,17.00
2022-11-28T09:31:03.170Z,16.87
2022-11-28T09:35:07.326Z,16.87
2022-11-28T09:39:10.541Z,18.60
2022-11-28T09:43:17.419Z,17.90
2022-11-28T09:47:26.483Z,19.63
2022-11-28T09:51:36.952Z,17.00
2022-11-28T09:55:43.601Z,13.67
2022-11-28T09:59:47.710Z,14.10
2022-11-28T10:04:00.351Z,9.60
2022-11-28T10:08:20.454Z,9.90
2022-11-28T10:12:34.271Z,12.80
2022-11-28T10:16:49.094Z,9.77
2022-11-28T10:20:58.293Z,10.10
2022-11-28T10:25:06.596Z,11.07
2022-11-28T10:29:18.595Z,11.60
2022-11-28T10:33:26.547Z,11.17
2022-11-28T10:37:33.935Z,10.47
2022-11-28T10:41:41.962Z,12.43
2022-11-28T10:45:51.291Z,13.90
2022-11-28T10:50:03.833Z,14.40
2022-11-28T10:54:22.275Z,13.57
2022-11-28T10:58:32.926Z,12.10
2022-11-28T11:02:42.581Z,14.37
2022-11-28T11:07:07.455Z,14.80
2022-11-28T11:11:23.924Z,15.03
2022-11-28T11:15:32.738Z,14.60
2022-11-28T11:19:38.692Z,13.80
2022-11-28T11:23:44.161Z,13.43
2022-11-28T11:27:54.640Z,13.70
2022-11-28T11:32:03.624Z,14.40
2022-11-28T11:36:28.576Z,13.10
2022-11-28T11:40:32.151Z,12.43
2022-11-28T11:44:37.551Z,12.20
2022-11-28T11:48:42.483Z,13.20
2022-11-28T11:52:45.883Z,14.53
2022-11-28T11:57:05.854Z,11.13
2022-11-28T12:01:19.145Z,11.20
2022-11-28T12:05:28.060Z,10.77
2022-11-28T12:09:37.478Z,10.87
2022-11-28T12:13:40.869Z,9.97
2022-11-28T12:17:59.254Z,10.40
2022-11-28T12:22:13.152Z,11.80
2022-11-28T12:26:25.223Z,12.13
2022-11-28T12:30:44.612Z,12.67
2022-11-28T12:35:07.382Z,12.73
2022-11-28T12:39:22.575Z,11.60
2022-11-28T12:43:41.444Z,11.70
2022-11-28T12:47:53.162Z,12.63
2022-11-28T12:52:08.548Z,11.50
2022-11-28T12:56:26.911Z,11.57
2022-11-28T13:00:30.675Z,12.50
2022-11-28T13:05:02.892Z,14.23
2022-11-28T13:09:27.131Z,12.80
2022-11-28T13:13:41.449Z,12.23
2022-11-28T13:17:52.987Z,12.90
2022-11-28T13:22:06.603Z,14.27
2022-11-28T13:26:17.118Z,13.97
2022-11-28T13:30:23.675Z,15.40
2022-11-28T13:34:27.927Z,12.87
2022-11-28T13:39:11.224Z,13.83
2022-11-28T13:43:25.626Z,14.63
2022-11-28T13:47:35.206Z,13.70
2022-11-28T13:51:38.982Z,12.13
2022-11-28T13:55:47.177Z,13.40
2022-11-28T13:59:58.082Z,13.30
2022-11-28T14:04:11.316Z,14.03
2022-11-28T14:08:30.175Z,12.80
2022-11-28T14:12:44.797Z,14.73
2022-11-28T14:17:05.315Z,15.00
2022-11-28T14:21:22.903Z,15.70
2022-11-28T14:25:33.459Z,16.90
2022-11-28T14:29:41.059Z,16.03
2022-11-28T14:33:47.281Z,18.10
2022-11-28T14:37:56.207Z,16.90
2022-11-28T14:47:14.870Z,16.40
2022-11-28T14:51:20.154Z,17.10
2022-11-28T14:55:23.953Z,17.93
2022-11-28T14:59:30.692Z,18.30
2022-11-28T15:03:40.436Z,21.47
2022-11-28T15:08:03.713Z,20.93
2022-11-28T15:12:18.894Z,18.50
2022-11-28T15:16:24.126Z,18.63
2022-11-28T15:20:33.783Z,19.50
2022-11-28T15:24:44.004Z,19.27
2022-11-28T15:28:47.728Z,19.33
2022-11-28T15:32:51.675Z,18.57
2022-11-28T15:36:56.522Z,20.93
2022-11-28T15:41:03.545Z,19.67
2022-11-28T15:45:12.296Z,22.10
2022-11-28T15:49:29.348Z,22.20
2022-11-28T15:53:33.749Z,21.47
2022-11-28T15:57:39.350Z,21.77
2022-11-28T16:01:43.459Z,17.70
2022-11-28T16:05:49.801Z,21.37
2022-11-28T16:09:59.829Z,18.80
2022-11-28T16:14:10.578Z,19.50
2022-11-28T16:18:17.043Z,19.47
2022-11-28T16:22:25.316Z,21.07
2022-11-28T16:26:36.787Z,19.10
2022-11-28T16:30:51.922Z,18.40
2022-11-28T16:35:01.123Z,19.77
2022-11-28T16:39:15.480Z,17.83
2022-11-28T16:43:22.740Z,18.10
2022-11-28T16:47:33.435Z,19.33
2022-11-28T16:51:39.170Z,20.10
2022-11-28T16:55:47.660Z,19.00
2022-11-28T16:59:53.279Z,20.97
2022-11-28T17:04:00.417Z,20.67
2022-11-28T17:08:03.930Z,18.87
2022-11-28T17:12:13.680Z,23.90
2022-11-28T17:16:20.178Z,19.53
2022-11-28T17:20:27.259Z,21.00
2022-11-28T17:24:39.612Z,20.47
2022-11-28T17:28:44.270Z,18.73
2022-11-28T17:32:49.050Z,20.40
2022-11-28T17:36:56.280Z,24.90
2022-11-28T17:41:02.617Z,22.67
2022-11-28T17:45:13.661Z,22.30
2022-11-28T17:49:18.505Z,24.03
2022-11-28T17:53:27.363Z,26.90
2022-11-28T17:57:32.642Z,27.53
2022-11-28T18:01:37.312Z,28.30
2022-11-28T18:05:46.048Z,22.87
2022-11-28T18:14:08.269Z,27.60
2022-11-28T18:23:05.994Z,25.33
2022-11-28T18:27:17.794Z,26.90
2022-11-28T18:31:30.063Z,30.60
2022-11-28T18:35:44.344Z,29.67
2022-11-28T18:39:53.460Z,27.67
2022-11-28T18:43:57.683Z,28.73
2022-11-28T18:48:08.942Z,28.37
2022-11-28T18:52:16.069Z,25.03
2022-11-28T18:56:23.240Z,27.37
2022-11-28T19:00:29.304Z,28.40
2022-11-28T19:04:37.007Z,27.60
2022-11-28T19:08:44.591Z,27.97
2022-11-28T19:12:51.896Z,26.30
2022-11-28T19:16:58.180Z,26.87
2022-11-28T19:21:07.270Z,27.87
2022-11-28T19:25:14.422Z,26.47
2022-11-28T19:29:20.516Z,27.87
2022-11-28T19:33:25.398Z,25.80
2022-11-28T19:37:34.399Z,29.87
2022-11-28T19:41:39.182Z,26.47
2022-11-28T19:45:44.418Z,26.53
2022-11-28T19:49:51.678Z,25.67
2022-11-28T19:54:03.216Z,28.50
2022-11-28T19:58:08.218Z,30.80
2022-11-28T20:02:19.470Z,28.77
2022-11-28T20:06:28.472Z,31.00
2022-11-28T20:10:38.609Z,31.50
2022-11-28T20:14:46.726Z,33.17
2022-11-28T20:19:00.000Z,32.37
2022-11-28T20:23:05.778Z,30.40
2022-11-28T20:27:14.841Z,29.07
2022-11-28T20:31:21.977Z,31.13
2022-11-28T20:35:33.517Z,34.77
2022-11-28T20:39:41.318Z,32.47
2022-11-28T20:43:55.843Z,32.53
2022-11-28T20:48:03.918Z,32.30
2022-11-28T20:52:08.533Z,33.47
2022-11-28T20:56:17.270Z,30.73
2022-11-28T21:00:35.858Z,33.90
2022-11-28T21:04:43.432Z,31.93
2022-11-28T21:08:52.019Z,32.93
2022-11-28T21:12:56.684Z,34.57
2022-11-28T21:17:06.800Z,33.50
2022-11-28T21:21:16.683Z,34.40
2022-11-28T21:25:29.232Z,31.47
2022-11-28T21:29:34.176Z,36.57
2022-11-28T21:33:39.406Z,35.50
2022-11-28T21:37:46.359Z,33.37
2022-11-28T21:41:55.597Z,33.00
2022-11-28T21:51:30.959Z,32.77
2022-11-28T21:55:38.892Z,35.23
2022-11-28T21:59:46.692Z,35.57
2022-11-28T22:04:02.143Z,37.00
2022-11-28T22:08:12.454Z,31.40
2022-11-28T22:12:20.815Z,35.73
2022-11-28T22:16:31.302Z,35.00
2022-11-28T22:20:50.237Z,35.20
2022-11-28T22:25:02.455Z,33.17
2022-11-28T22:29:09.513Z,33.07
2022-11-28T22:33:17.475Z,34.53
2022-11-28T22:37:26.592Z,34.67
2022-11-28T22:41:37.134Z,32.70
2022-11-28T22:45:49.892Z,32.07
2022-11-28T22:49:56.032Z,34.70
2022-11-28T22:54:05.068Z,35.40
2022-11-28T22:58:14.842Z,32.07
2022-11-28T23:06:47.833Z,31.27
2022-11-28T23:10:56.146Z,34.63
2022-11-28T23:15:08.846Z,30.63
2022-11-28T23:19:17.878Z,31.23
2022-11-28T23:23:24.664Z,31.07
2022-11-28T23:27:34.126Z,29.60
2022-11-28T23:31:45.732Z,29.70
2022-11-28T23:35:53.462Z,33.10
2022-11-28T23:40:02.053Z,33.00
2022-11-28T23:44:07.732Z,31.40
2022-11-28T23:48:16.547Z,34.40
2022-11-28T23:52:23.135Z,35.60
2022-11-28T23:56:33.135Z,35.70
